• Join FlightAware (Why Join?)
  • Login
  • US Flag 
04:39PM EST


 

Airport Tracker/Info


-or-


 

Live Flight TrackerFlight Track Log ✈ DAL268 ✈ 10-May-2013 ✈ KATL - KJFK

Flight Track Log - Related Links

Times and Time Zones

All times are in EDT time to prevent confusion due to time zone crossing. See the DAL268 flight status page for this flight to view local times or setup timezone preferences in your user account.

Time Position Orientation Groundspeed Altitude Reporting Facility
EDT Latitude Longitude Course Direction KTS MPH feet Rate Location/Type
06:21PM 33.6167 -84.5167 64° Northeast 222 255 3,000  Level Atlanta TRACON
06:22PM 33.5667 -84.5833 228° Southwest 268 308 5,400 2,460 Climbing Atlanta TRACON
06:23PM 33.7118 -84.0040 101° East  Level FlightAware Approximate
06:23PM 33.5000 -84.5833 180° South 258 297 7,700  Level Atlanta TRACON
06:24PM 33.6886 -83.8646 101° East  Level FlightAware Approximate
06:25PM 33.6653 -83.7253 101° East  Level FlightAware Approximate
06:25PM 33.4536 -84.3700 105° East 317 365 12,000  Level Atlanta Center
06:26PM 33.6677 -83.5901 64° Northeast  Level FlightAware Approximate
06:26PM 33.4683 -84.2456 82° East 355 409 14,300  Level Atlanta Center
06:27PM 33.5186 -84.1236 64° Northeast 390 449 16,000 1,740 Climbing Atlanta Center
06:28PM 33.5708 -84.0014 63° Northeast 397 457 17,800 1,380 Climbing Atlanta Center
06:29PM 33.6125 -83.8692 69° East 411 473 18,800 1,080 Climbing Atlanta Center
06:30PM 33.6436 -83.7244 75° East 434 499 20,000 1,200 Climbing Atlanta Center
06:31PM 33.6828 -83.5794 72° East 440 506 21,200 1,140 Climbing Atlanta Center
06:32PM 33.7386 -83.4392 64° Northeast 453 521 22,300 840 Climbing Atlanta Center
06:33PM 33.7983 -83.2964 63° Northeast 471 542 22,900 900 Climbing Atlanta Center
06:34PM 33.8619 -83.1431 63° Northeast 496 571 24,100 1,020 Climbing Atlanta Center
06:35PM 33.9192 -82.9950 65° Northeast 496 571 25,000 420 Climbing Atlanta Center
06:36PM 33.9806 -82.8414 64° Northeast 496 571 25,000  Level Atlanta Center
06:37PM 34.0353 -82.7078 64° Northeast 491 565 25,000  Level Atlanta Center
06:38PM 34.0922 -82.5589 65° Northeast 485 558 25,000  Level Atlanta Center
06:39PM 34.1569 -82.3944 65° Northeast 485 558 25,000  Level Atlanta Center
06:40PM 34.2153 -82.2428 65° Northeast 485 558 25,000  Level Atlanta Center
06:41PM 34.2797 -82.0981 62° Northeast 485 558 25,000  Level Atlanta Center
06:42PM 34.3506 -81.9556 59° Northeast 485 558 25,000  Level Atlanta Center
06:43PM 34.4189 -81.8153 59° Northeast 485 558 25,000  Level Atlanta Center
06:44PM 34.4894 -81.6775 58° Northeast 485 558 25,000  Level Atlanta Center
06:45PM 34.5597 -81.5342 59° Northeast 485 558 25,000  Level Atlanta Center
06:46PM 34.6317 -81.3881 59° Northeast 479 551 25,000  Level Atlanta Center
06:47PM 34.6975 -81.2522 59° Northeast 479 551 25,000  Level Atlanta Center
06:48PM 34.7694 -81.1056 59° Northeast 486 559 25,000  Level Atlanta Center
06:50PM 34.8836 -80.8683 60° Northeast 477 549 25,000  Level Washington Center
06:51PM 34.9567 -80.7211 59° Northeast 483 556 25,000  Level Washington Center
06:52PM 35.0256 -80.5783 59° Northeast 490 564 25,000  Level Washington Center
06:53PM 35.0961 -80.4306 60° Northeast 490 564 25,000  Level Washington Center
06:54PM 35.1669 -80.2822 60° Northeast 495 570 25,000  Level Washington Center
06:55PM 35.2372 -80.1364 59° Northeast 490 564 25,000  Level Washington Center
06:56PM 35.3053 -79.9925 60° Northeast 493 567 25,000  Level Washington Center
06:57PM 35.3608 -79.8378 66° East 493 567 25,000  Level Washington Center
06:58PM 35.4058 -79.6819 70° East 493 567 25,000  Level Washington Center
06:59PM 35.4550 -79.5239 69° East 488 562 25,000  Level Washington Center
07:00PM 35.5019 -79.3681 70° East 483 556 25,000  Level Washington Center
07:01PM 35.5483 -79.2144 70° East 483 556 25,000  Level Washington Center
07:02PM 35.5906 -79.0581 72° East 478 550 25,000  Level Washington Center
07:03PM 35.6389 -78.9017 69° East 478 550 25,000  Level Washington Center
07:04PM 35.6892 -78.7300 70° East 478 550 25,000  Level Washington Center
07:05PM 35.7350 -78.5706 70° East 483 556 25,000  Level Washington Center
07:06PM 35.8033 -78.4272 60° Northeast 483 556 25,000  Level Washington Center
07:07PM 35.8897 -78.2969 51° Northeast 481 554 25,000  Level Washington Center
07:08PM 35.9761 -78.1689 50° Northeast 486 559 25,000  Level Washington Center
07:09PM 36.0622 -78.0381 51° Northeast 486 559 25,000  Level Washington Center
07:10PM 36.1483 -77.9044 51° Northeast 486 559 25,000  Level Washington Center
07:11PM 36.2300 -77.7731 52° Northeast 486 559 25,000 240 Level Washington Center
07:12PM 36.3139 -77.6414 52° Northeast 486 559 25,500 960 Climbing Washington Center
07:13PM 36.3994 -77.5042 52° Northeast 486 559 26,900 720 Climbing Washington Center
07:14PM 36.4744 -77.3897 51° Northeast 481 554 27,000  Climbing Washington Center
07:15PM 36.5678 -77.2678 46° Northeast 476 548 27,000  Level Washington Center
07:16PM 36.6633 -77.1533 44° Northeast 476 548 27,000  Level Washington Center
07:17PM 36.7628 -77.0386 43° Northeast 476 548 27,000  Level Washington Center
07:18PM 36.8581 -76.9236 44° Northeast 476 548 27,000  Level Washington Center
07:19PM 36.9531 -76.8056 45° Northeast 476 548 27,000  Level Washington Center
07:20PM 37.0503 -76.6875 44° Northeast 481 554 27,000  Level Washington Center
07:21PM 37.1472 -76.5689 44° Northeast 481 554 27,000  Level Washington Center
07:22PM 37.2525 -76.4400 44° Northeast 486 559 27,000  Level Washington Center
07:23PM 37.3514 -76.3208 44° Northeast 486 559 27,000  Level Washington Center
07:24PM 37.4478 -76.2039 44° Northeast 486 559 27,000  Level Washington Center
07:25PM 37.5486 -76.0922 41° Northeast 481 554 27,000  Level Washington Center
07:26PM 37.6469 -75.9722 44° Northeast 481 554 27,000  Level Washington Center
07:27PM 37.7433 -75.8544 44° Northeast 476 548 27,000  Level Washington Center
07:28PM 37.8414 -75.7364 44° Northeast 476 548 27,000  Level Washington Center
07:29PM 37.9394 -75.6156 44° Northeast 481 554 27,000  Level Washington Center
07:30PM 38.0250 -75.5075 45° Northeast 481 554 27,000  Level Washington Center
07:31PM 38.1356 -75.4122 34° Northeast 481 554 27,000  Level Washington Center
07:32PM 38.2583 -75.3431 24° Northeast 471 542 27,000  Level Washington Center
07:33PM 38.3750 -75.2658 27° Northeast 471 542 27,000  Level Washington Center
07:34PM 38.4956 -75.1886 27° Northeast 471 542 27,000  Level Washington Center
07:35PM 38.6122 -75.1189 25° Northeast 471 542 27,000  Level Washington Center
07:36PM 38.7306 -75.0381 28° Northeast 471 542 27,000  Level Washington Center
07:37PM 38.8492 -74.9625 26° Northeast 471 542 27,000 -60 Level Washington Center
07:38PM 38.9694 -74.8789 28° Northeast 471 542 26,900  Descending Washington Center
07:39PM 39.0794 -74.7842 34° Northeast 471 542 27,000 -420 Climbing Washington Center
07:40PM 39.1850 -74.6786 38° Northeast 471 542 26,100 -1,620 Descending Washington Center
07:42PM 39.3172 -74.5439 38° Northeast 471 542 23,300 -1,860 Descending New York Center
07:43PM 39.4078 -74.4547 37° Northeast 438 504 21,800 -1,740 Descending New York Center
07:44PM 39.4853 -74.3725 39° Northeast 390 449 19,900 -1,920 Descending New York Center
07:45PM 39.5714 -74.2828 39° Northeast 359 413 18,000 -1,200 Descending New York Center
07:46PM 39.6489 -74.2731 North 313 360 17,500 -1,080 Descending New York Center
07:47PM 39.7333 -74.3044 344° North 300 345 15,900 -1,380 Descending New York Center
07:48PM 39.8269 -74.3117 357° North 308 354 14,900 -780 Descending New York Center
07:49PM 39.8572 -74.2078 69° East 266 306 14,400 -840 Descending New York Center
07:50PM 39.8625 -74.0919 87° East 293 337 13,300 -1,080 Descending New York Center
07:51PM 39.8883 -73.9903 72° East 316 364 12,300 -1,020 Descending New York Center
07:52PM 39.9675 -73.9128 37° Northeast 303 349 11,300 -660 Descending New York Center
07:53PM 40.0381 -73.8481 35° Northeast 303 349 11,000 -360 Descending New York Center
07:54PM 40.1192 -73.8517 358° North 285 328 10,700 -660 Descending New York Center
07:55PM 40.1919 -73.8631 353° North 285 328 9,700 -900 Descending New York Center
07:56PM 40.2794 -73.8589 North 290 334 9,000 -780 Descending New York Center
07:57PM 40.2833 -73.7500 87° East 259 298 8,100 -660 Descending New York TRACON
07:58PM 40.3167 -73.6667 62° Northeast 255 293 7,600 -600 Descending New York TRACON
07:59PM 40.3417 -73.6247 52° Northeast 243 280 7,100 -360 Descending New York Center
08:00PM 40.4056 -73.5728 32° Northeast 243 280 7,000 -60 Descending New York Center
08:01PM 40.4586 -73.5314 31° Northeast 243 280 7,000 -360 Level New York Center
08:02PM 40.5222 -73.4822 30° Northeast 243 280 6,300 -780 Descending New York Center
08:03PM 40.5775 -73.4378 31° Northeast 243 280 5,500 -780 Descending New York Center
08:04PM 40.6411 -73.3911 29° Northeast 243 280 4,800 -720 Descending New York Center
08:05PM 40.7167 -73.3667 14° North 235 270 4,000 -420 Descending New York TRACON
08:07PM 40.8333 -73.4333 337° Northwest 196 226 3,600 -420 Descending New York TRACON
08:08PM 40.8667 -73.4833 311° West 177 204 2,800 -780 Descending New York TRACON
08:09PM 40.8667 -73.5333 270° West 163 188 2,100 -420 Descending New York TRACON
08:10PM 40.8500 -73.5833 246° West 156 180 2,000 -60 Descending New York TRACON
08:11PM 40.8167 -73.6167 217° Southwest 155 178 2,000  Level New York TRACON
08:12PM 40.7833 -73.6500 217° Southwest 154 177 2,000  Level New York TRACON
08:13PM 40.7500 -73.6833 217° Southwest 150 173 2,000  Level New York TRACON